createdAt,value
2019-01-21T00:01:33.504Z,74.38
2019-01-21T00:06:41.414Z,75.35
2019-01-21T00:11:49.660Z,75.08
2019-01-21T00:16:59.492Z,74.65
2019-01-21T00:22:10.246Z,74.82
2019-01-21T00:27:19.608Z,74.61
2019-01-21T00:32:32.099Z,75.55
2019-01-21T00:37:47.206Z,75.93
2019-01-21T00:42:54.501Z,75.45
2019-01-21T00:48:02.464Z,75.00
2019-01-21T00:53:13.004Z,75.71
2019-01-21T00:58:22.308Z,75.46
2019-01-21T01:03:33.061Z,75.96
2019-01-21T01:08:42.917Z,76.03
2019-01-21T01:13:52.678Z,76.03
2019-01-21T01:18:59.891Z,76.37
2019-01-21T01:24:16.783Z,76.33
2019-01-21T01:29:25.289Z,75.99
2019-01-21T01:34:37.573Z,75.99
2019-01-21T01:39:50.119Z,76.33
2019-01-21T01:45:00.206Z,77.42
2019-01-21T01:50:10.582Z,76.59
2019-01-21T01:55:22.230Z,76.52
2019-01-21T02:00:31.114Z,76.92
2019-01-21T02:05:42.631Z,76.40
2019-01-21T02:10:56.939Z,76.68
2019-01-21T02:16:07.636Z,77.25
2019-01-21T02:21:16.876Z,76.66
2019-01-21T02:26:28.833Z,76.68
2019-01-21T02:32:05.388Z,76.70
2019-01-21T02:37:45.191Z,77.94
2019-01-21T02:43:34.857Z,78.14
2019-01-21T02:48:54.064Z,78.17
2019-01-21T02:54:19.854Z,77.45
2019-01-21T03:00:05.337Z,77.02
2019-01-21T03:05:49.479Z,77.02
2019-01-21T03:11:34.127Z,77.32
2019-01-21T03:17:26.821Z,78.00
2019-01-21T03:23:14.665Z,77.68
2019-01-21T03:29:13.481Z,77.48
2019-01-21T03:34:53.387Z,78.13
2019-01-21T03:40:38.087Z,77.60
2019-01-21T03:46:22.217Z,77.55
2019-01-21T03:52:20.496Z,78.03
2019-01-21T03:57:45.676Z,77.85
2019-01-21T04:03:35.664Z,77.75
2019-01-21T04:09:16.040Z,78.22
2019-01-21T04:14:37.902Z,77.63
2019-01-21T04:19:58.523Z,78.07
2019-01-21T04:25:47.589Z,78.36
2019-01-21T04:31:33.705Z,78.02
2019-01-21T04:37:17.134Z,77.81
2019-01-21T04:42:47.374Z,77.61
2019-01-21T04:48:06.527Z,78.26
2019-01-21T04:53:47.944Z,78.33
2019-01-21T04:59:17.191Z,78.03
2019-01-21T05:04:49.332Z,78.62
2019-01-21T05:10:22.989Z,79.16
2019-01-21T05:16:02.894Z,78.65
2019-01-21T05:21:47.672Z,78.90
2019-01-21T05:27:32.453Z,78.86
2019-01-21T05:34:49.314Z,78.75
2019-01-21T05:40:22.920Z,78.71
2019-01-21T05:46:01.462Z,79.16
2019-01-21T05:51:31.925Z,79.02
2019-01-21T05:57:17.993Z,79.21
2019-01-21T06:03:04.756Z,79.53
2019-01-21T06:08:58.731Z,79.59
2019-01-21T06:14:40.588Z,79.96
2019-01-21T06:20:11.087Z,79.99
2019-01-21T06:25:53.956Z,79.82
2019-01-21T06:31:36.231Z,80.42
2019-01-21T06:37:07.641Z,80.45
2019-01-21T06:42:50.405Z,80.21
2019-01-21T06:48:57.061Z,80.19
2019-01-21T06:54:49.889Z,79.96
2019-01-21T07:00:35.473Z,79.72
2019-01-21T07:06:38.888Z,79.49
2019-01-21T07:12:17.125Z,80.69
2019-01-21T07:17:43.867Z,80.93
2019-01-21T07:23:39.749Z,80.39
2019-01-21T07:29:36.385Z,81.11
2019-01-21T07:35:17.190Z,81.08
2019-01-21T07:41:17.671Z,81.12
2019-01-21T07:46:39.017Z,81.02
2019-01-21T07:52:25.896Z,81.04
2019-01-21T07:58:11.109Z,81.17
2019-01-21T08:04:14.417Z,81.08
2019-01-21T08:10:15.184Z,81.22
2019-01-21T08:16:17.316Z,81.01
2019-01-21T08:22:02.290Z,80.80
2019-01-21T08:27:36.074Z,80.56
2019-01-21T08:33:04.748Z,80.60
2019-01-21T08:38:40.518Z,80.38
2019-01-21T08:44:35.593Z,80.31
2019-01-21T08:50:04.271Z,80.62
2019-01-21T08:55:34.001Z,80.32
2019-01-21T09:01:04.807Z,79.84
2019-01-21T09:06:35.305Z,79.59
2019-01-21T09:12:24.063Z,79.43
2019-01-21T09:18:01.307Z,79.46
2019-01-21T09:23:31.630Z,79.59
2019-01-21T09:29:13.573Z,79.68
2019-01-21T09:35:13.033Z,80.40
2019-01-21T09:40:55.122Z,82.56
2019-01-21T09:46:26.596Z,81.79
2019-01-21T09:51:37.223Z,78.36
2019-01-21T09:56:46.223Z,74.31
2019-01-21T10:02:01.325Z,70.26
2019-01-21T10:07:36.843Z,67.21
2019-01-21T10:13:23.053Z,62.37
2019-01-21T10:19:19.269Z,60.43
2019-01-21T10:24:48.318Z,57.63
2019-01-21T10:30:15.243Z,57.04
2019-01-21T10:35:55.122Z,56.23
2019-01-21T10:41:37.571Z,54.19
2019-01-21T10:47:07.302Z,53.82
2019-01-21T10:52:52.841Z,53.87
2019-01-21T10:58:32.644Z,51.78
2019-01-21T11:04:11.430Z,50.91
2019-01-21T11:09:40.360Z,48.70
2019-01-21T11:15:44.053Z,49.64
2019-01-21T11:21:16.871Z,47.52
2019-01-21T11:26:59.463Z,47.68
2019-01-21T11:32:49.060Z,44.04
2019-01-21T11:38:20.427Z,43.42
2019-01-21T11:43:58.690Z,44.56
2019-01-21T11:49:49.989Z,43.20
2019-01-21T11:55:20.861Z,42.21
2019-01-21T12:00:39.869Z,41.40
2019-01-21T12:06:03.047Z,41.75
2019-01-21T12:11:53.176Z,39.40
2019-01-21T12:17:33.737Z,39.03
2019-01-21T12:23:16.294Z,39.46
2019-01-21T12:29:05.629Z,37.13
2019-01-21T12:34:45.064Z,36.78
2019-01-21T12:40:23.528Z,37.05
2019-01-21T12:45:48.168Z,36.34
2019-01-21T12:51:33.032Z,35.53
2019-01-21T12:57:05.492Z,33.21
2019-01-21T13:02:50.429Z,33.82
2019-01-21T13:08:28.907Z,33.55
2019-01-21T13:14:36.016Z,33.68
2019-01-21T13:20:38.492Z,32.81
2019-01-21T13:26:20.506Z,33.77
2019-01-21T13:31:55.979Z,33.59
2019-01-21T13:37:38.663Z,33.73
2019-01-21T13:42:57.652Z,35.76
2019-01-21T13:48:43.782Z,32.94
2019-01-21T13:54:30.372Z,30.43
2019-01-21T14:00:32.012Z,31.85
2019-01-21T14:06:23.342Z,30.76
2019-01-21T14:11:57.041Z,30.60
2019-01-21T14:17:50.022Z,31.34
2019-01-21T14:23:10.465Z,31.88
2019-01-21T14:28:50.496Z,35.50
2019-01-21T14:34:18.407Z,39.51
2019-01-21T14:39:40.194Z,41.83
2019-01-21T14:45:39.815Z,44.02
2019-01-21T14:51:22.453Z,45.90
2019-01-21T14:57:23.997Z,46.47
2019-01-21T15:02:45.556Z,47.83
2019-01-21T15:08:19.583Z,49.91
2019-01-21T15:14:18.549Z,51.21
2019-01-21T15:19:52.207Z,51.09
2019-01-21T15:25:38.244Z,50.99
2019-01-21T15:31:20.479Z,50.98
2019-01-21T15:37:04.388Z,51.26
2019-01-21T15:42:49.132Z,52.18
2019-01-21T15:48:44.327Z,52.41
2019-01-21T15:54:16.106Z,52.47
2019-01-21T16:00:05.186Z,53.01
2019-01-21T16:05:44.993Z,53.47
2019-01-21T16:11:37.828Z,53.13
2019-01-21T16:17:32.359Z,53.46
2019-01-21T16:23:17.068Z,54.40
2019-01-21T16:28:50.726Z,55.13
2019-01-21T16:34:58.823Z,55.94
2019-01-21T16:40:32.629Z,56.91
2019-01-21T16:45:47.427Z,57.31
2019-01-21T16:50:55.035Z,57.57
2019-01-21T16:56:02.697Z,57.66
2019-01-21T17:01:12.865Z,57.55
2019-01-21T17:06:21.853Z,58.31
2019-01-21T17:11:33.671Z,59.03
2019-01-21T17:16:46.283Z,59.06
2019-01-21T17:21:55.343Z,59.13
2019-01-21T17:27:06.625Z,59.24
2019-01-21T17:32:15.545Z,59.61
2019-01-21T17:37:22.189Z,60.05
2019-01-21T17:42:36.994Z,60.24
2019-01-21T17:47:46.337Z,60.08
2019-01-21T17:52:54.487Z,59.88
2019-01-21T17:58:06.032Z,60.05
2019-01-21T18:03:17.828Z,60.19
2019-01-21T18:08:28.618Z,60.75
2019-01-21T18:13:35.960Z,61.15
2019-01-21T18:18:45.775Z,60.99
2019-01-21T18:23:54.776Z,61.35
2019-01-21T18:29:03.797Z,61.88
2019-01-21T18:34:13.779Z,62.14
2019-01-21T18:39:27.814Z,62.38
2019-01-21T18:44:42.332Z,62.70
2019-01-21T18:49:56.508Z,63.62
2019-01-21T18:55:10.219Z,63.60
2019-01-21T19:00:22.307Z,63.66
2019-01-21T19:05:34.885Z,63.67
2019-01-21T19:10:48.561Z,64.01
2019-01-21T19:15:57.178Z,63.98
2019-01-21T19:21:02.818Z,64.20
2019-01-21T19:26:11.898Z,64.94
2019-01-21T19:31:24.583Z,65.01
2019-01-21T19:36:38.415Z,65.39
2019-01-21T19:41:50.148Z,65.36
2019-01-21T19:47:01.832Z,65.63
2019-01-21T19:52:11.065Z,65.67
2019-01-21T19:57:17.141Z,65.83
2019-01-21T20:02:31.624Z,66.25
2019-01-21T20:07:45.092Z,66.35
2019-01-21T20:12:58.599Z,66.57
2019-01-21T20:18:07.569Z,66.63
2019-01-21T20:23:21.260Z,66.81
2019-01-21T20:28:29.716Z,67.06
2019-01-21T20:33:39.816Z,67.30
2019-01-21T20:38:53.514Z,67.48
2019-01-21T20:44:06.405Z,67.79
2019-01-21T20:49:15.737Z,67.92
2019-01-21T20:54:28.464Z,68.21
2019-01-21T20:59:48.463Z,68.35
2019-01-21T21:04:58.406Z,68.44
2019-01-21T21:10:10.908Z,68.27
2019-01-21T21:15:25.060Z,68.44
2019-01-21T21:20:36.946Z,68.84
2019-01-21T21:25:48.844Z,69.03
2019-01-21T21:30:58.531Z,69.50
2019-01-21T21:36:16.689Z,69.39
2019-01-21T21:41:31.486Z,69.71
2019-01-21T21:46:44.168Z,69.75
2019-01-21T21:51:54.990Z,70.18
2019-01-21T21:57:07.600Z,69.95
2019-01-21T22:02:16.039Z,70.24
2019-01-21T22:07:24.248Z,70.69
2019-01-21T22:12:38.569Z,70.83
2019-01-21T22:17:53.005Z,70.88
2019-01-21T22:23:06.564Z,71.10
2019-01-21T22:28:14.666Z,71.34
2019-01-21T22:33:25.415Z,71.11
2019-01-21T22:38:35.729Z,71.11
2019-01-21T22:43:42.777Z,71.24
2019-01-21T22:48:57.714Z,71.42
2019-01-21T22:54:09.228Z,71.45
2019-01-21T22:59:17.998Z,71.56
2019-01-21T23:04:29.690Z,71.66
2019-01-21T23:09:42.386Z,71.75
2019-01-21T23:14:57.842Z,72.28
2019-01-21T23:20:09.584Z,72.00
2019-01-21T23:25:21.226Z,72.03
2019-01-21T23:30:31.119Z,72.17
2019-01-21T23:35:39.765Z,72.34
2019-01-21T23:40:54.466Z,72.51
2019-01-21T23:46:03.846Z,72.68
2019-01-21T23:51:23.056Z,72.71
2019-01-21T23:56:36.742Z,72.96
